createdAt,value
2018-11-06T00:00:28.371Z,100622.32
2018-11-06T00:05:20.994Z,100622.27
2018-11-06T00:10:13.594Z,100620.37
2018-11-06T00:15:07.422Z,100621.14
2018-11-06T00:20:00.040Z,100618.39
2018-11-06T00:24:52.770Z,100615.36
2018-11-06T00:29:45.478Z,100624.25
2018-11-06T00:34:39.175Z,100609.64
2018-11-06T00:39:32.687Z,100621.75
2018-11-06T00:44:25.292Z,100612.53
2018-11-06T00:49:18.163Z,100608.14
2018-11-06T00:54:10.757Z,100598.97
2018-11-06T00:59:03.381Z,100606.20
2018-11-06T01:04:01.902Z,100605.33
2018-11-06T01:08:54.528Z,100615.25
2018-11-06T01:13:47.555Z,100608.48
2018-11-06T01:18:40.181Z,100610.89
2018-11-06T01:23:32.837Z,100617.11
2018-11-06T01:28:25.456Z,100613.30
2018-11-06T01:33:18.075Z,100613.83
2018-11-06T01:38:10.675Z,100609.25
2018-11-06T01:43:04.485Z,100616.81
2018-11-06T01:47:57.090Z,100610.89
2018-11-06T01:52:49.693Z,100611.42
2018-11-06T01:57:42.330Z,100608.67
2018-11-06T02:02:34.925Z,100611.90
2018-11-06T02:07:27.533Z,100605.91
2018-11-06T02:12:20.011Z,100599.70
2018-11-06T02:17:12.566Z,100606.45
2018-11-06T02:22:05.067Z,100608.56
2018-11-06T02:26:57.798Z,100627.98
2018-11-06T02:31:50.421Z,100619.89
2018-11-06T02:36:43.034Z,100620.11
2018-11-06T02:41:35.685Z,100613.83
2018-11-06T02:46:28.314Z,100614.31
2018-11-06T02:51:20.949Z,100613.23
2018-11-06T02:56:13.586Z,100620.21
2018-11-06T03:01:06.726Z,100623.15
2018-11-06T03:05:59.364Z,100628.78
2018-11-06T03:10:51.989Z,100634.41
2018-11-06T03:15:44.604Z,100639.22
2018-11-06T03:20:37.251Z,100638.91
2018-11-06T03:25:29.890Z,100632.69
2018-11-06T03:30:22.487Z,100637.98
2018-11-06T03:35:15.326Z,100651.67
2018-11-06T03:40:08.740Z,100640.83
2018-11-06T03:45:01.424Z,100641.53
2018-11-06T03:49:54.021Z,100642.00
2018-11-06T03:54:46.633Z,100652.47
2018-11-06T03:59:39.303Z,100644.84
2018-11-06T04:04:31.913Z,100649.65
2018-11-06T04:09:24.505Z,100656.89
2018-11-06T04:14:17.134Z,100660.87
2018-11-06T04:19:09.777Z,100664.09
2018-11-06T04:24:02.901Z,100662.92
2018-11-06T04:28:55.558Z,100659.61
2018-11-06T04:33:48.317Z,100651.89
2018-11-06T04:38:40.901Z,100650.16
2018-11-06T04:43:33.591Z,100645.69
2018-11-06T04:48:26.234Z,100652.92
2018-11-06T04:53:19.901Z,100658.02
2018-11-06T04:58:12.598Z,100667.98
2018-11-06T05:03:05.313Z,100674.95
2018-11-06T05:07:57.945Z,100673.31
2018-11-06T05:12:51.056Z,100671.66
2018-11-06T05:17:43.750Z,100675.88
2018-11-06T05:22:36.498Z,100670.97
2018-11-06T05:27:29.395Z,100680.86
2018-11-06T05:32:22.051Z,100679.68
2018-11-06T05:37:14.620Z,100690.06
2018-11-06T05:42:07.184Z,100684.83
2018-11-06T05:46:59.969Z,100682.62
2018-11-06T05:51:52.642Z,100690.41
2018-11-06T05:56:45.263Z,100689.30
2018-11-06T06:01:38.430Z,100699.77
2018-11-06T06:06:31.419Z,100695.30
2018-11-06T06:11:24.490Z,100693.61
2018-11-06T06:16:17.521Z,100698.63
2018-11-06T06:21:10.522Z,100703.72
2018-11-06T06:26:03.352Z,100703.65
2018-11-06T06:30:56.373Z,100707.42
2018-11-06T06:35:49.512Z,100708.47
2018-11-06T06:40:42.277Z,100708.17
2018-11-06T06:45:34.945Z,100730.84
2018-11-06T06:50:27.816Z,100720.33
2018-11-06T06:55:20.468Z,100733.27
2018-11-06T07:00:14.878Z,100728.14
2018-11-06T07:05:09.396Z,100735.44
2018-11-06T07:10:02.158Z,100741.95
2018-11-06T07:14:55.074Z,100746.06
2018-11-06T07:19:47.838Z,100747.18
2018-11-06T07:24:40.489Z,100747.78
2018-11-06T07:29:33.209Z,100754.77
2018-11-06T07:34:25.947Z,100745.66
2018-11-06T07:39:18.756Z,100762.70
2018-11-06T07:44:11.619Z,100759.03
2018-11-06T07:49:04.811Z,100774.49
2018-11-06T07:53:57.554Z,100778.80
2018-11-06T07:58:50.244Z,100775.93
2018-11-06T08:03:42.968Z,100773.31
2018-11-06T08:08:35.592Z,100779.05
2018-11-06T08:13:28.281Z,100779.60
2018-11-06T08:18:20.990Z,100770.41
2018-11-06T08:23:13.658Z,100774.16
2018-11-06T08:28:06.292Z,100762.77
2018-11-06T08:32:59.023Z,100767.94
2018-11-06T08:42:56.865Z,100771.06
2018-11-06T08:47:49.634Z,100770.28
2018-11-06T08:52:42.483Z,100772.89
2018-11-06T08:57:35.178Z,100778.63
2018-11-06T09:02:27.913Z,100776.19
2018-11-06T09:07:20.725Z,100775.44
2018-11-06T09:12:13.514Z,100763.47
2018-11-06T09:17:06.334Z,100777.69
2018-11-06T09:21:59.080Z,100777.52
2018-11-06T09:26:51.780Z,100773.06
2018-11-06T09:31:44.596Z,100765.08
2018-11-06T09:36:37.314Z,100768.57
2018-11-06T09:41:30.500Z,100761.13
2018-11-06T09:46:23.301Z,100768.91
2018-11-06T09:51:15.888Z,100757.02
2018-11-06T09:56:08.546Z,100761.94
2018-11-06T10:01:01.285Z,100755.78
2018-11-06T10:05:53.949Z,100761.82
2018-11-06T10:10:46.662Z,100763.22
2018-11-06T10:15:39.361Z,100759.44
2018-11-06T10:20:32.066Z,100747.80
2018-11-06T10:25:24.691Z,100752.97
2018-11-06T10:30:18.609Z,100754.86
2018-11-06T10:35:11.546Z,100750.54
2018-11-06T10:40:09.870Z,100743.17
2018-11-06T10:45:02.559Z,100740.12
2018-11-06T10:49:55.145Z,100748.27
2018-11-06T10:54:47.785Z,100743.36
2018-11-06T10:59:40.506Z,100738.97
2018-11-06T11:04:33.190Z,100739.20
2018-11-06T11:09:25.821Z,100726.57
2018-11-06T11:14:18.495Z,100730.34
2018-11-06T11:19:11.963Z,100726.74
2018-11-06T11:24:05.067Z,100724.50
2018-11-06T11:28:57.693Z,100713.23
2018-11-06T11:33:50.552Z,100725.48
2018-11-06T11:38:43.207Z,100726.31
2018-11-06T11:43:36.515Z,100728.17
2018-11-06T11:48:29.287Z,100729.27
2018-11-06T11:53:21.951Z,100722.70
2018-11-06T11:58:15.018Z,100726.98
2018-11-06T12:03:08.173Z,100714.50
2018-11-06T12:08:00.981Z,100712.83
2018-11-06T12:12:53.689Z,100717.94
2018-11-06T12:17:46.844Z,100715.59
2018-11-06T12:22:39.901Z,100718.41
2018-11-06T12:27:32.549Z,100707.45
2018-11-06T12:32:25.241Z,100710.88
2018-11-06T12:37:17.971Z,100707.20
2018-11-06T12:42:10.702Z,100709.78
2018-11-06T12:47:03.355Z,100711.36
2018-11-06T12:51:56.249Z,100704.78
2018-11-06T12:56:48.993Z,100708.16
2018-11-06T13:01:41.621Z,100711.44
2018-11-06T13:06:34.320Z,100705.55
2018-11-06T13:11:26.982Z,100704.11
2018-11-06T13:16:19.733Z,100708.00
2018-11-06T13:21:12.314Z,100709.57
2018-11-06T13:26:05.271Z,100712.11
2018-11-06T13:30:57.994Z,100709.64
2018-11-06T13:35:50.846Z,100705.20
2018-11-06T13:40:43.482Z,100708.63
2018-11-06T13:45:36.304Z,100704.87
2018-11-06T13:50:28.871Z,100699.30
2018-11-06T13:55:22.090Z,100691.63
2018-11-06T14:00:18.621Z,100702.14
2018-11-06T14:05:11.812Z,100709.14
2018-11-06T14:10:05.030Z,100715.36
2018-11-06T14:14:57.797Z,100709.12
2018-11-06T14:19:50.651Z,100707.45
2018-11-06T14:24:43.447Z,100707.75
2018-11-06T14:29:36.124Z,100714.67
2018-11-06T14:34:28.895Z,100705.97
2018-11-06T14:39:21.698Z,100703.20
2018-11-06T14:44:14.301Z,100702.91
2018-11-06T14:49:07.205Z,100698.11
2018-11-06T14:53:59.911Z,100702.52
2018-11-06T14:58:52.695Z,100706.41
2018-11-06T15:03:45.453Z,100706.43
2018-11-06T15:08:38.139Z,100704.81
2018-11-06T15:13:30.786Z,100706.78
2018-11-06T15:18:23.708Z,100708.71
2018-11-06T15:23:16.362Z,100702.73
2018-11-06T15:28:09.101Z,100687.23
2018-11-06T15:33:01.772Z,100694.39
2018-11-06T15:37:54.510Z,100701.81
2018-11-06T15:42:47.289Z,100698.63
2018-11-06T15:47:41.190Z,100710.16
2018-11-06T15:52:33.909Z,100722.78
2018-11-06T15:57:26.667Z,100734.59
2018-11-06T16:02:19.274Z,100736.30
2018-11-06T16:07:11.965Z,100738.81
2018-11-06T16:12:04.689Z,100735.83
2018-11-06T16:16:57.447Z,100740.52
2018-11-06T16:21:50.145Z,100735.42
2018-11-06T16:26:42.914Z,100729.20
2018-11-06T16:31:35.517Z,100721.34
2018-11-06T16:36:28.245Z,100714.56
2018-11-06T16:41:20.979Z,100722.73
2018-11-06T16:46:13.557Z,100718.13
2018-11-06T16:51:06.511Z,100727.67
2018-11-06T16:55:59.200Z,100723.59
2018-11-06T17:00:52.036Z,100717.05
2018-11-06T17:05:44.630Z,100719.77
2018-11-06T17:10:37.412Z,100728.77
2018-11-06T17:15:30.065Z,100722.22
2018-11-06T17:20:23.057Z,100726.86
2018-11-06T17:25:16.987Z,100730.38
2018-11-06T17:30:11.934Z,100730.66
2018-11-06T17:35:06.256Z,100719.77
2018-11-06T17:39:58.870Z,100717.61
2018-11-06T17:44:51.726Z,100712.70
2018-11-06T17:49:44.373Z,100715.70
2018-11-06T17:54:37.141Z,100713.77
2018-11-06T17:59:29.921Z,100705.89
2018-11-06T18:04:22.624Z,100708.86
2018-11-06T18:09:15.181Z,100716.20
2018-11-06T18:14:07.962Z,100716.45
2018-11-06T18:19:00.605Z,100700.16
2018-11-06T18:23:53.189Z,100704.71
2018-11-06T18:28:45.796Z,100708.23
2018-11-06T18:33:38.581Z,100710.38
2018-11-06T18:38:31.263Z,100707.91
2018-11-06T18:43:23.829Z,100702.45
2018-11-06T18:48:16.432Z,100710.04
2018-11-06T18:53:09.181Z,100711.92
2018-11-06T18:58:02.010Z,100699.43
2018-11-06T19:02:54.482Z,100704.84
2018-11-06T19:07:47.160Z,100698.04
2018-11-06T19:12:40.129Z,100700.73
2018-11-06T19:17:32.773Z,100702.34
2018-11-06T19:22:25.410Z,100713.45
2018-11-06T19:27:18.078Z,100714.80
2018-11-06T19:32:11.107Z,100713.67
2018-11-06T19:37:04.095Z,100715.28
2018-11-06T19:41:56.862Z,100717.12
2018-11-06T19:46:49.579Z,100712.23
2018-11-06T19:51:42.261Z,100719.79
2018-11-06T19:56:34.920Z,100722.17
2018-11-06T20:01:27.736Z,100722.41
2018-11-06T20:06:20.672Z,100726.14
2018-11-06T20:11:13.306Z,100722.30
2018-11-06T20:16:05.950Z,100724.17
2018-11-06T20:20:58.598Z,100722.52
2018-11-06T20:25:51.274Z,100715.11
2018-11-06T20:30:43.876Z,100708.84
2018-11-06T20:35:36.524Z,100713.40
2018-11-06T20:40:29.158Z,100711.48
2018-11-06T20:45:22.252Z,100709.81
2018-11-06T20:50:18.821Z,100717.09
2018-11-06T20:55:12.687Z,100708.11
2018-11-06T21:00:08.844Z,100702.89
2018-11-06T21:05:01.500Z,100705.25
2018-11-06T21:09:54.329Z,100695.20
2018-11-06T21:14:47.164Z,100689.75
2018-11-06T21:19:39.974Z,100688.58
2018-11-06T21:24:32.613Z,100700.06
2018-11-06T21:29:25.274Z,100699.03
2018-11-06T21:34:18.042Z,100696.73
2018-11-06T21:39:10.735Z,100693.38
2018-11-06T21:44:03.446Z,100694.03
2018-11-06T21:48:56.078Z,100687.43
2018-11-06T21:53:48.750Z,100685.25
2018-11-06T21:58:41.422Z,100685.12
2018-11-06T22:03:33.991Z,100690.64
2018-11-06T22:08:26.601Z,100683.83
2018-11-06T22:13:19.257Z,100693.78
2018-11-06T22:18:11.901Z,100686.97
2018-11-06T22:23:04.698Z,100689.34
2018-11-06T22:27:57.297Z,100688.43
2018-11-06T22:32:49.965Z,100686.44
2018-11-06T22:37:42.757Z,100688.80
2018-11-06T22:42:35.361Z,100688.70
2018-11-06T22:47:27.969Z,100685.89
2018-11-06T22:52:20.572Z,100691.44
2018-11-06T22:57:13.172Z,100682.66
2018-11-06T23:02:05.820Z,100686.64
2018-11-06T23:06:58.516Z,100686.25
2018-11-06T23:11:51.084Z,100681.48
2018-11-06T23:16:43.693Z,100675.74
2018-11-06T23:21:36.355Z,100682.66
2018-11-06T23:26:29.029Z,100674.37
2018-11-06T23:31:21.698Z,100674.70
2018-11-06T23:36:14.253Z,100674.46
2018-11-06T23:41:06.968Z,100672.28
2018-11-06T23:45:59.566Z,100671.47
2018-11-06T23:50:52.186Z,100670.64
2018-11-06T23:55:44.821Z,100668.23
